Time;durP1;ratioP1;P1;durP2;ratioP2;P2;SDS_P1;SDS_P2;PMS_P1;PMS_P2;Temp;Humidity;BMP_temperature;BMP_pressure;BME280_temperature;BME280_humidity;BME280_pressure;Samples;Min_cycle;Max_cycle;Signal;HPM_P1;HPM_P2
2024/04/12 00:09:56;;;;;;;;;;;18.70;36.50;;;;;;22873351;26;19927;-56
2024/04/12 00:19:57;;;;;;;;;;;18.70;36.10;;;;;;22871736;26;19927;-56
2024/04/12 00:30:03;;;;;;;;;;;18.40;35.70;;;;;;22870448;26;20266;-55
2024/04/12 00:40:07;;;;;;;;;;;18.40;35.80;;;;;;22874597;26;20281;-56
2024/04/12 00:50:15;;;;;;;;;;;18.30;35.70;;;;;;22884567;26;19938;-56
2024/04/12 01:00:19;;;;;;;;;;;18.20;35.90;;;;;;22884024;26;19976;-57
2024/04/12 01:10:30;;;;;;;;;;;18.20;35.80;;;;;;22884154;26;20325;-55
2024/04/12 01:20:35;;;;;;;;;;;18.10;35.90;;;;;;22884188;25;19939;-57
2024/04/12 01:30:39;;;;;;;;;;;18.00;36.20;;;;;;22883275;26;19927;-56
2024/04/12 01:40:41;;;;;;;;;;;17.90;36.10;;;;;;22884310;26;20282;-56
2024/04/12 01:50:43;;;;;;;;;;;17.80;35.80;;;;;;22880629;26;19928;-56
2024/04/12 02:00:44;;;;;;;;;;;17.70;36.10;;;;;;22882027;25;20005;-56
2024/04/12 02:10:48;;;;;;;;;;;17.60;36.20;;;;;;22881229;26;19927;-57
2024/04/12 02:20:51;;;;;;;;;;;17.50;36.50;;;;;;22880668;26;19927;-55
2024/04/12 02:30:55;;;;;;;;;;;17.20;40.40;;;;;;22880115;26;20263;-56
2024/04/12 02:40:58;;;;;;;;;;;16.80;43.70;;;;;;22879690;26;19938;-56
2024/04/12 02:51:03;;;;;;;;;;;16.60;44.80;;;;;;22878927;26;19966;-54
2024/04/12 03:01:25;;;;;;;;;;;16.30;45.30;;;;;;22880198;26;20344;-55
2024/04/12 03:11:34;;;;;;;;;;;16.30;45.70;;;;;;22876242;26;19928;-55
2024/04/12 03:21:36;;;;;;;;;;;16.20;46.10;;;;;;22876410;26;19932;-56
2024/04/12 03:31:40;;;;;;;;;;;16.00;47.70;;;;;;22875697;26;19935;-55
2024/04/12 03:42:18;;;;;;;;;;;15.70;49.60;;;;;;22875149;26;19976;-57
2024/04/12 03:52:14;;;;;;;;;;;15.50;50.00;;;;;;22875216;26;19956;-55
2024/04/12 04:02:18;;;;;;;;;;;15.40;50.90;;;;;;22872701;26;19935;-55
2024/04/12 04:12:21;;;;;;;;;;;15.30;50.40;;;;;;22872830;26;20499;-55
2024/04/12 04:22:39;;;;;;;;;;;15.20;50.60;;;;;;22869855;25;20256;-55
2024/04/12 04:32:40;;;;;;;;;;;15.10;51.90;;;;;;22866763;26;19942;-55
2024/04/12 04:42:45;;;;;;;;;;;14.90;52.00;;;;;;22871684;26;19939;-54
2024/04/12 04:52:46;;;;;;;;;;;14.80;52.50;;;;;;22869585;26;19964;-56
2024/04/12 05:02:52;;;;;;;;;;;14.70;52.60;;;;;;22868714;26;19940;-55
2024/04/12 05:12:53;;;;;;;;;;;14.70;52.80;;;;;;22867939;26;20280;-55
2024/04/12 05:23:00;;;;;;;;;;;14.50;52.90;;;;;;22867912;26;20038;-55
2024/04/12 05:33:02;;;;;;;;;;;14.40;53.10;;;;;;23036103;25;20005;-55
2024/04/12 05:43:03;;;;;;;;;;;14.30;54.40;;;;;;23037191;25;19934;-55
2024/04/12 05:53:04;;;;;;;;;;;14.20;54.50;;;;;;23038000;25;19938;-55
2024/04/12 06:03:08;;;;;;;;;;;14.20;55.00;;;;;;23035656;25;19995;-56
2024/04/12 06:13:09;;;;;;;;;;;14.10;54.60;;;;;;23034155;25;19934;-55
2024/04/12 06:23:11;;;;;;;;;;;14.00;54.60;;;;;;23034466;25;19927;-56
2024/04/12 06:33:12;;;;;;;;;;;13.90;55.30;;;;;;23034152;25;19935;-56
2024/04/12 06:43:13;;;;;;;;;;;14.00;55.60;;;;;;23033034;25;20364;-55
2024/04/12 06:53:15;;;;;;;;;;;14.10;55.30;;;;;;23032980;25;20372;-55
2024/04/12 07:03:16;;;;;;;;;;;14.40;54.30;;;;;;23032305;25;19938;-57
2024/04/12 07:13:21;;;;;;;;;;;14.80;52.40;;;;;;23029372;25;19956;-56
2024/04/12 07:23:23;;;;;;;;;;;15.30;51.70;;;;;;23028484;25;19934;-56
2024/04/12 07:33:24;;;;;;;;;;;15.70;50.70;;;;;;23027647;25;19927;-57
2024/04/12 07:43:31;;;;;;;;;;;16.30;49.70;;;;;;23028138;25;19933;-56
2024/04/12 07:53:34;;;;;;;;;;;16.80;47.70;;;;;;23024967;25;20356;-55
2024/04/12 08:03:39;;;;;;;;;;;18.40;42.40;;;;;;23027528;25;20050;-56
2024/04/12 08:13:44;;;;;;;;;;;17.70;43.80;;;;;;23026642;25;19934;-56
2024/04/12 08:23:48;;;;;;;;;;;18.00;43.40;;;;;;23025093;25;20239;-56
2024/04/12 08:33:52;;;;;;;;;;;18.30;42.80;;;;;;23026002;25;19926;-56
2024/04/12 08:43:58;;;;;;;;;;;18.50;40.80;;;;;;23024579;25;19927;-57
2024/04/12 08:54:03;;;;;;;;;;;18.80;40.20;;;;;;23023974;25;20403;-56
2024/04/12 09:04:14;;;;;;;;;;;19.00;37.20;;;;;;23032744;25;19927;-56
2024/04/12 09:14:23;;;;;;;;;;;19.20;37.30;;;;;;23038820;25;19938;-55
2024/04/12 09:24:31;;;;;;;;;;;19.40;37.40;;;;;;23038518;25;19976;-56
2024/04/12 09:34:35;;;;;;;;;;;19.60;35.80;;;;;;23037000;25;19939;-56
2024/04/12 09:44:49;;;;;;;;;;;19.60;35.90;;;;;;23036852;25;19938;-56
2024/04/12 10:46:33;;;;;;;;;;;20.00;37.20;;;;;;23034789;25;19931;-55
2024/04/12 10:56:35;;;;;;;;;;;20.20;36.30;;;;;;23032489;25;19926;-56
2024/04/12 11:06:37;;;;;;;;;;;20.60;36.30;;;;;;23029254;25;19934;-56
2024/04/12 11:37:28;;;;;;;;;;;;;;;;;;23031018;25;19927;-56
2024/04/12 11:47:31;;;;;;;;;;;;;;;;;;23030104;25;19927;-57
2024/04/12 11:57:36;;;;;;;;;;;22.20;34.00;;;;;;23029764;25;19955;-55
2024/04/12 12:07:37;;;;;;;;;;;21.40;34.60;;;;;;23029016;25;20313;-56
2024/04/12 12:17:39;;;;;;;;;;;21.20;35.50;;;;;;23029069;25;19927;-56
2024/04/12 12:27:40;;;;;;;;;;;21.20;35.00;;;;;;23027277;25;19937;-56
2024/04/12 12:37:41;;;;;;;;;;;21.60;34.30;;;;;;23031689;25;19931;-56
2024/04/12 12:47:43;;;;;;;;;;;21.90;33.60;;;;;;23041630;25;19935;-56
2024/04/12 12:57:45;;;;;;;;;;;21.90;33.80;;;;;;23041289;25;20387;-57
2024/04/12 13:07:49;;;;;;;;;;;22.10;34.00;;;;;;23040167;25;19931;-56
2024/04/12 13:17:51;;;;;;;;;;;22.20;33.40;;;;;;23039786;25;19934;-57
2024/04/12 13:27:52;;;;;;;;;;;22.20;33.60;;;;;;23038959;25;20424;-57
2024/04/12 13:37:55;;;;;;;;;;;22.30;33.40;;;;;;23038254;25;19970;-56
2024/04/12 13:58:16;;;;;;;;;;;22.60;33.70;;;;;;23037463;25;19930;-56
2024/04/12 14:08:20;;;;;;;;;;;22.90;32.60;;;;;;23035117;25;19926;-56
2024/04/12 14:18:21;;;;;;;;;;;23.00;32.00;;;;;;23033233;25;19927;-56
2024/04/12 14:28:22;;;;;;;;;;;23.20;31.70;;;;;;23032960;25;19927;-57
2024/04/12 14:38:23;;;;;;;;;;;23.20;31.80;;;;;;23035060;25;19939;-57
2024/04/12 14:48:25;;;;;;;;;;;23.30;31.30;;;;;;23032927;25;19931;-57
2024/04/12 14:58:29;;;;;;;;;;;23.30;31.90;;;;;;23031587;25;19994;-56
2024/04/12 15:50:10;;;;;;;;;;;23.50;30.60;;;;;;23029355;25;19935;-58
2024/04/12 16:10:48;;;;;;;;;;;23.50;31.00;;;;;;23025801;25;19939;-56
2024/04/12 16:20:49;;;;;;;;;;;23.70;31.30;;;;;;23028561;25;19927;-55
2024/04/12 16:30:50;;;;;;;;;;;23.60;31.00;;;;;;23026679;25;20294;-56
2024/04/12 16:40:51;;;;;;;;;;;23.60;30.50;;;;;;23025715;25;19939;-56
2024/04/12 16:50:52;;;;;;;;;;;23.60;31.00;;;;;;23023655;25;19995;-56
2024/04/12 17:00:54;;;;;;;;;;;23.60;31.10;;;;;;23023501;25;19941;-56
2024/04/12 17:10:56;;;;;;;;;;;23.60;30.60;;;;;;23023610;25;19926;-56
2024/04/12 17:21:02;;;;;;;;;;;23.70;31.50;;;;;;23025714;25;19990;-57
2024/04/12 17:31:06;;;;;;;;;;;23.70;31.50;;;;;;23040608;25;19927;-56
2024/04/12 17:41:07;;;;;;;;;;;23.60;31.90;;;;;;23038537;25;19927;-57
2024/04/12 17:51:08;;;;;;;;;;;23.60;31.80;;;;;;23036725;25;19927;-58
2024/04/12 18:01:11;;;;;;;;;;;23.50;31.80;;;;;;23037220;25;19927;-57
2024/04/12 18:11:13;;;;;;;;;;;23.50;32.20;;;;;;23034928;25;19941;-59
2024/04/12 18:21:17;;;;;;;;;;;23.40;33.10;;;;;;23034522;25;19931;-57
2024/04/12 18:31:18;;;;;;;;;;;23.20;33.30;;;;;;23032861;25;19997;-56
2024/04/12 18:51:38;;;;;;;;;;;22.90;34.40;;;;;;23034546;25;19935;-57
2024/04/12 19:01:39;;;;;;;;;;;22.70;34.50;;;;;;23031131;25;19934;-58
2024/04/12 19:11:41;;;;;;;;;;;22.40;35.60;;;;;;23032042;25;20324;-57
2024/04/12 19:21:44;;;;;;;;;;;22.20;36.90;;;;;;23031713;25;19927;-58
2024/04/12 19:31:46;;;;;;;;;;;22.10;38.00;;;;;;23032396;25;19927;-56
2024/04/12 19:41:47;;;;;;;;;;;21.90;38.30;;;;;;23032680;25;19927;-57
2024/04/12 19:51:49;;;;;;;;;;;21.70;38.80;;;;;;23028517;25;19959;-57
2024/04/12 20:01:50;;;;;;;;;;;21.60;39.40;;;;;;23029155;25;19938;-59
2024/04/12 20:11:52;;;;;;;;;;;21.40;40.50;;;;;;23027085;25;19991;-56
2024/04/12 20:21:54;;;;;;;;;;;21.30;40.80;;;;;;23025759;25;19956;-57
2024/04/12 20:32:22;;;;;;;;;;;21.20;40.90;;;;;;23023263;25;19931;-56
2024/04/12 20:42:17;;;;;;;;;;;21.20;41.10;;;;;;23023155;25;19926;-57
2024/04/12 20:52:20;;;;;;;;;;;21.10;41.60;;;;;;23020446;25;19927;-57
2024/04/12 21:02:21;;;;;;;;;;;20.90;41.90;;;;;;23033085;25;19931;-58
2024/04/12 21:12:22;;;;;;;;;;;20.70;42.10;;;;;;23035784;25;19935;-58
2024/04/12 21:22:23;;;;;;;;;;;20.70;42.50;;;;;;23037669;25;20311;-57
2024/04/12 21:32:25;;;;;;;;;;;20.70;43.00;;;;;;23041000;25;19959;-57
2024/04/12 21:42:28;;;;;;;;;;;20.60;43.60;;;;;;23038543;25;19992;-57
2024/04/12 21:52:29;;;;;;;;;;;20.40;44.10;;;;;;23038040;25;20229;-57
2024/04/12 22:02:30;;;;;;;;;;;20.30;44.70;;;;;;23037019;25;19927;-57
2024/04/12 22:12:32;;;;;;;;;;;20.20;45.40;;;;;;23032588;25;19963;-58
2024/04/12 22:22:33;;;;;;;;;;;20.00;45.90;;;;;;23033926;25;20217;-58
2024/04/12 22:32:34;;;;;;;;;;;19.90;46.50;;;;;;23033870;25;19963;-57
2024/04/12 22:42:36;;;;;;;;;;;19.80;47.30;;;;;;23034966;25;19999;-57
2024/04/12 22:52:37;;;;;;;;;;;19.70;47.70;;;;;;23033095;25;19927;-58
2024/04/12 23:02:38;;;;;;;;;;;19.60;48.30;;;;;;23032377;25;19926;-59
2024/04/12 23:12:39;;;;;;;;;;;19.60;48.90;;;;;;23034495;25;19927;-57
2024/04/12 23:22:40;;;;;;;;;;;19.40;49.70;;;;;;23032097;25;19971;-57
2024/04/12 23:32:41;;;;;;;;;;;19.20;50.40;;;;;;23032444;25;19934;-57
2024/04/12 23:42:42;;;;;;;;;;;19.20;50.70;;;;;;23032195;25;20272;-62
2024/04/12 23:52:44;;;;;;;;;;;19.10;51.10;;;;;;23030164;25;19934;-57
